• Join FlightAware (Why Join?)
  • Login
  • US Flag 
12:14AM EDT


 

Airport Tracker/Info


-or-


 

Live Flight TrackerFlight Track Log ✈ CTL13 ✈ 24-Jun-2013 ✈ KBKL - KEYE

Flight Track Log - Related Links

Times and Time Zones

All times are in EDT time to prevent confusion due to time zone crossing. See the CTL13 flight status page for this flight to view local times or setup timezone preferences in your user account.

Time Position Orientation Groundspeed Altitude Reporting Facility
EDT Latitude Longitude Course Direction KTS MPH feet Rate Location/Type
06:40PM 41.5125 -81.7061 335° Northwest 123 142 1,000  Level Cleveland Center
06:41PM 41.5353 -81.7206 335° Northwest 134 154 1,700 780 Climbing Cleveland Center
06:42PM 41.5789 -81.7378 344° North 151 174 2,500 780 Climbing Cleveland Center
06:43PM 41.5953 -81.7797 298° West 130 150 3,400 780 Climbing Cleveland Center
06:44PM 41.5967 -81.8242 272° West 125 144 4,100 660 Climbing Cleveland Center
06:45PM 41.5983 -81.8797 272° West 132 152 4,800 660 Climbing Cleveland Center
06:46PM 41.5997 -81.9272 272° West 125 144 5,500 540 Climbing Cleveland Center
06:47PM 41.5806 -81.9656 236° Southwest 126 145 6,000 300 Climbing Cleveland Center
06:48PM 41.5633 -82.0067 241° Southwest 141 162 6,100  Climbing Cleveland Center
06:49PM 41.5503 -82.0453 246° West 155 178 6,100 -60 Level Cleveland Center
06:50PM 41.5247 -82.1031 239° Southwest 156 180 6,000 -60 Descending Cleveland Center
06:51PM 41.5031 -82.1525 240° Southwest 150 173 6,000  Level Cleveland Center
06:52PM 41.4836 -82.1992 241° Southwest 145 167 6,100  Climbing Cleveland Center
06:53PM 41.4642 -82.2458 241° Southwest 146 168 6,100 -60 Level Cleveland Center
06:54PM 41.4428 -82.2950 240° Southwest 151 174 6,000 120 Descending Cleveland Center
06:55PM 41.4211 -82.3414 238° Southwest 150 173 6,400 420 Climbing Cleveland Center
06:56PM 41.4017 -82.3881 241° Southwest 138 159 6,900 60 Climbing Cleveland Center
06:58PM 41.3683 -82.4517 235° Southwest  Level FlightAware Approximate
07:05PM 41.2191 -82.7903 242° Southwest  Level FlightAware Approximate
07:06PM 41.1991 -82.8394 242° Southwest  Level FlightAware Approximate
07:07PM 41.1790 -82.8886 242° Southwest  Level FlightAware Approximate
07:08PM 41.1589 -82.9377 241° Southwest  Level FlightAware Approximate
07:09PM 41.1388 -82.9868 241° Southwest  Level FlightAware Approximate
07:09PM 41.1347 -82.9886 238° Southwest 156 180 8,000  Level Indianapolis Center
07:10PM 41.1170 -83.0346 238° Southwest  Level FlightAware Approximate
07:10PM 41.1125 -83.0386 239° Southwest 157 181 8,000  Level Indianapolis Center
07:11PM 41.0947 -83.0819 238° Southwest  Level FlightAware Approximate
07:11PM 41.0894 -83.0875 238° Southwest 156 180 8,000  Level Indianapolis Center
07:12PM 41.0723 -83.1292 238° Southwest  Level FlightAware Approximate
07:12PM 41.0661 -83.1386 239° Southwest 159 183 8,000  Level Indianapolis Center
07:13PM 41.0499 -83.1764 238° Southwest  Level FlightAware Approximate
07:13PM 41.0447 -83.1897 241° Southwest 159 183 8,000  Level Indianapolis Center
07:14PM 41.0275 -83.2236 238° Southwest  Level FlightAware Approximate
07:14PM 41.0200 -83.2383 236° Southwest 158 182 8,000  Level Indianapolis Center
07:15PM 40.9961 -83.2958 241° Southwest 153 176 8,000  Level Indianapolis Center
07:16PM 40.9728 -83.3447 238° Southwest 155 178 8,000  Level Indianapolis Center
07:17PM 40.9508 -83.3950 240° Southwest 155 178 8,000  Level Indianapolis Center
07:18PM 40.9275 -83.4436 238° Southwest 156 180 8,000  Level Indianapolis Center
07:19PM 40.9039 -83.4928 238° Southwest 157 181 8,100  Climbing Indianapolis Center
07:20PM 40.8844 -83.5406 242° Southwest 156 180 8,100 -60 Level Indianapolis Center
07:21PM 40.8628 -83.5894 240° Southwest 154 177 8,000 -60 Descending Indianapolis Center
07:22PM 40.8342 -83.6458 236° Southwest 156 180 8,000  Level Indianapolis Center
07:23PM 40.8097 -83.6933 236° Southwest 156 180 8,000  Level Indianapolis Center
07:24PM 40.7836 -83.7408 234° Southwest 157 181 8,000  Level Indianapolis Center
07:25PM 40.7592 -83.7892 236° Southwest 158 182 8,000  Level Indianapolis Center
07:26PM 40.7339 -83.8372 235° Southwest 158 182 8,000  Level Indianapolis Center
07:27PM 40.7111 -83.8856 238° Southwest 156 180 8,000  Level Indianapolis Center
07:28PM 40.6869 -83.9339 237° Southwest 156 180 8,000  Level Indianapolis Center
07:30PM 40.6572 -83.9972 238° Southwest 151 174 8,000  Level Indianapolis Center
07:31PM 40.6422 -84.0303 239° Southwest 154 177 8,000 -60 Level Indianapolis Center
07:32PM 40.6175 -84.0772 235° Southwest 155 178 7,900 -60 Descending Indianapolis Center
07:33PM 40.5833 -84.1414 235° Southwest 156 180 7,900  Level Indianapolis Center
07:34PM 40.5644 -84.1800 237° Southwest 155 178 7,900  Level Indianapolis Center
07:35PM 40.5367 -84.2256 231° Southwest 156 180 7,900  Level Indianapolis Center
07:36PM 40.5131 -84.2719 236° Southwest 154 177 7,900  Level Indianapolis Center
07:37PM 40.4889 -84.3192 236° Southwest 154 177 8,000  Climbing Indianapolis Center
07:38PM 40.4642 -84.3664 235° Southwest 155 178 7,900 -60 Descending Indianapolis Center
07:39PM 40.4400 -84.4119 235° Southwest 152 175 7,900  Level Indianapolis Center
07:40PM 40.4144 -84.4567 233° Southwest 152 175 7,900  Level Indianapolis Center
07:41PM 40.3842 -84.5125 235° Southwest 156 180 7,900  Level Indianapolis Center
07:42PM 40.3642 -84.5514 236° Southwest 155 178 8,000  Climbing Indianapolis Center
07:43PM 40.3372 -84.6089 238° Southwest 157 181 7,900 -60 Descending Indianapolis Center
07:44PM 40.3133 -84.6547 236° Southwest 154 177 7,900  Level Indianapolis Center
07:45PM 40.2900 -84.7031 238° Southwest 154 177 7,900  Level Indianapolis Center
07:46PM 40.2647 -84.7533 237° Southwest 157 181 7,900  Level Indianapolis Center
07:47PM 40.2442 -84.7983 239° Southwest 153 176 7,900  Level Indianapolis Center
07:48PM 40.2203 -84.8447 236° Southwest 152 175 7,900  Level Indianapolis Center
07:49PM 40.1953 -84.8964 238° Southwest 154 177 7,900  Level Indianapolis Center
07:50PM 40.1736 -84.9419 238° Southwest 154 177 8,000  Climbing Indianapolis Center
07:51PM 40.1514 -84.9889 238° Southwest 153 176 8,000  Level Indianapolis Center
07:52PM 40.1300 -85.0364 240° Southwest 152 175 8,000 -60 Level Indianapolis Center
07:53PM 40.1183 -85.0886 254° West 151 174 7,900  Descending Indianapolis Center
07:54PM 40.1067 -85.1531 257° West 151 174 8,000  Climbing Indianapolis Center
07:55PM 40.0978 -85.2047 257° West 150 173 7,900  Descending Indianapolis Center
07:56PM 40.0853 -85.2550 252° West 147 169 8,000  Climbing Indianapolis Center
07:57PM 40.0731 -85.3072 253° West 149 171 8,000  Level Indianapolis Center
07:58PM 40.0631 -85.3578 256° West 146 168 8,000 -300 Level Indianapolis Center
07:59PM 40.0511 -85.4133 254° West 155 178 7,400 -600 Descending Indianapolis Center
08:00PM 40.0394 -85.4700 255° West 160 184 6,800 -660 Descending Indianapolis Center
08:01PM 40.0272 -85.5281 255° West 164 189 6,100 -720 Descending Indianapolis Center
08:02PM 40.0122 -85.5978 254° West 166 191 5,400 -720 Descending Indianapolis Center
08:03PM 39.9992 -85.6561 254° West 167 192 4,700 -660 Descending Indianapolis Center
08:04PM 39.9867 -85.7142 254° West 167 192 4,100 -540 Descending Indianapolis Center
08:05PM 39.9747 -85.7714 255° West 166 191 3,700 -480 Descending Indianapolis Center
08:06PM 39.9628 -85.8303 255° West 166 191 3,200 -420 Descending Indianapolis Center
08:07PM 39.9517 -85.8892 256° West 167 192 2,900 -180 Descending Indianapolis Center
08:08PM 39.9419 -85.9439 257° West 161 185 2,900  Level Indianapolis Center
08:09PM 39.9322 -85.9956 256° West 153 176 2,900  Level Indianapolis Center
08:11PM 39.9186 -86.0592 254° West 151 174 2,900  Level Indianapolis Center
08:12PM 39.9072 -86.1111 254° West 151 174 2,900  Level Indianapolis Center
08:13PM 39.8969 -86.1619 255° West 149 171 2,900 -300 Level Indianapolis Center
08:14PM 39.8892 -86.2153 259° West 150 173 2,400 -360 Descending Indianapolis Center
08:15PM 39.8900 -86.2764 271° West 151 174 2,200 -240 Descending Indianapolis Center